M85 weather

Gideon Memorial Airport
Gideon, Missouri, United States

Public forecast

Using degrees Fahrenheit for public forecast. Weather courtesy of forecast.io.

METAR (pilot weather report)

Closest report is Kennett Memorial Airport, 14.6 nm (27.0 km) SSW. Retrieved 2019/05/24 04:35 UTC (23 minutes ago):

KTKX 240435Z AUTO 15005KT 6SM BR CLR 23/23 A3006 RMK AO2

TAF (pilot weather forecast)

Forecast is more than 12 hours old.

Closest forecast is Cape Girardeau Regional Airport, 49.6 nm (91.8 km) NNE. Retrieved 2019/05/23 00:22 UTC (1 day ago):

TAF KCGI 232320Z 2400/2424 21006KT P6SM FEW040 FM240300 18005KT P6SM SKC FM242000 20010G18KT P6SM FEW060